sensor_id;sensor_type;location;lat;lon;timestamp;temperature;humidity
79336;SHT35;69634;52.122;5.406;2024-02-26T00:02:22;6.00;82.13
79336;SHT35;69634;52.122;5.406;2024-02-26T00:04:53;5.96;81.87
79336;SHT35;69634;52.122;5.406;2024-02-26T00:07:23;5.94;82.20
79336;SHT35;69634;52.122;5.406;2024-02-26T00:09:54;5.95;82.10
79336;SHT35;69634;52.122;5.406;2024-02-26T00:12:24;5.86;82.43
79336;SHT35;69634;52.122;5.406;2024-02-26T00:14:54;5.88;82.10
79336;SHT35;69634;52.122;5.406;2024-02-26T00:17:28;5.86;82.32
79336;SHT35;69634;52.122;5.406;2024-02-26T00:19:58;5.86;82.67
79336;SHT35;69634;52.122;5.406;2024-02-26T00:22:28;5.83;82.22
79336;SHT35;69634;52.122;5.406;2024-02-26T00:24:59;5.84;82.47
79336;SHT35;69634;52.122;5.406;2024-02-26T00:27:29;5.78;82.46
79336;SHT35;69634;52.122;5.406;2024-02-26T00:29:59;5.79;82.75
79336;SHT35;69634;52.122;5.406;2024-02-26T00:32:32;5.74;82.55
79336;SHT35;69634;52.122;5.406;2024-02-26T00:35:02;5.72;82.61
79336;SHT35;69634;52.122;5.406;2024-02-26T00:37:32;5.72;82.52
79336;SHT35;69634;52.122;5.406;2024-02-26T00:40:03;5.70;82.74
79336;SHT35;69634;52.122;5.406;2024-02-26T00:42:34;5.71;82.68
79336;SHT35;69634;52.122;5.406;2024-02-26T00:45:04;5.68;83.08
79336;SHT35;69634;52.122;5.406;2024-02-26T00:47:37;5.63;82.95
79336;SHT35;69634;52.122;5.406;2024-02-26T00:50:09;5.60;82.95
79336;SHT35;69634;52.122;5.406;2024-02-26T00:52:40;5.58;82.90
79336;SHT35;69634;52.122;5.406;2024-02-26T00:55:10;5.57;82.83
79336;SHT35;69634;52.122;5.406;2024-02-26T00:57:41;5.53;83.02
79336;SHT35;69634;52.122;5.406;2024-02-26T01:00:12;5.52;83.61
79336;SHT35;69634;52.122;5.406;2024-02-26T01:02:45;5.52;83.32
79336;SHT35;69634;52.122;5.406;2024-02-26T01:05:16;5.53;83.36
79336;SHT35;69634;52.122;5.406;2024-02-26T01:07:46;5.53;82.91
79336;SHT35;69634;52.122;5.406;2024-02-26T01:10:16;5.52;82.70
79336;SHT35;69634;52.122;5.406;2024-02-26T01:12:47;5.53;82.70
79336;SHT35;69634;52.122;5.406;2024-02-26T01:15:17;5.53;82.53
79336;SHT35;69634;52.122;5.406;2024-02-26T01:17:53;5.56;82.56
79336;SHT35;69634;52.122;5.406;2024-02-26T01:20:23;5.56;82.36
79336;SHT35;69634;52.122;5.406;2024-02-26T01:22:54;5.57;82.11
79336;SHT35;69634;52.122;5.406;2024-02-26T01:25:24;5.55;82.42
79336;SHT35;69634;52.122;5.406;2024-02-26T01:27:54;5.55;82.00
79336;SHT35;69634;52.122;5.406;2024-02-26T01:30:25;5.57;81.96
79336;SHT35;69634;52.122;5.406;2024-02-26T01:32:58;5.59;82.33
79336;SHT35;69634;52.122;5.406;2024-02-26T01:35:28;5.60;82.10
79336;SHT35;69634;52.122;5.406;2024-02-26T01:37:58;5.60;81.78
79336;SHT35;69634;52.122;5.406;2024-02-26T01:40:28;5.64;82.12
79336;SHT35;69634;52.122;5.406;2024-02-26T01:42:59;5.62;81.66
79336;SHT35;69634;52.122;5.406;2024-02-26T01:45:29;5.63;81.71
79336;SHT35;69634;52.122;5.406;2024-02-26T01:48:03;5.65;81.94
79336;SHT35;69634;52.122;5.406;2024-02-26T01:50:34;5.67;81.66
79336;SHT35;69634;52.122;5.406;2024-02-26T01:53:07;5.71;81.89
79336;SHT35;69634;52.122;5.406;2024-02-26T01:55:38;5.70;81.14
79336;SHT35;69634;52.122;5.406;2024-02-26T01:58:09;5.74;81.59
79336;SHT35;69634;52.122;5.406;2024-02-26T02:00:39;5.77;81.40
79336;SHT35;69634;52.122;5.406;2024-02-26T02:03:13;5.78;81.38
79336;SHT35;69634;52.122;5.406;2024-02-26T02:05:44;5.79;80.98
79336;SHT35;69634;52.122;5.406;2024-02-26T02:08:15;5.76;80.97
79336;SHT35;69634;52.122;5.406;2024-02-26T02:10:45;5.85;81.05
79336;SHT35;69634;52.122;5.406;2024-02-26T02:13:17;5.82;80.63
79336;SHT35;69634;52.122;5.406;2024-02-26T02:15:48;5.85;80.77
79336;SHT35;69634;52.122;5.406;2024-02-26T02:18:21;5.84;80.82
79336;SHT35;69634;52.122;5.406;2024-02-26T02:20:53;5.89;80.95
79336;SHT35;69634;52.122;5.406;2024-02-26T02:23:26;5.90;80.19
79336;SHT35;69634;52.122;5.406;2024-02-26T02:25:58;5.92;80.29
79336;SHT35;69634;52.122;5.406;2024-02-26T02:28:28;5.94;79.90
79336;SHT35;69634;52.122;5.406;2024-02-26T02:30:58;5.96;80.25
79336;SHT35;69634;52.122;5.406;2024-02-26T02:33:29;5.90;79.96
79336;SHT35;69634;52.122;5.406;2024-02-26T02:36:03;5.91;80.34
79336;SHT35;69634;52.122;5.406;2024-02-26T02:38:37;5.99;79.84
79336;SHT35;69634;52.122;5.406;2024-02-26T02:41:07;5.95;79.59
79336;SHT35;69634;52.122;5.406;2024-02-26T02:43:38;5.98;79.26
79336;SHT35;69634;52.122;5.406;2024-02-26T02:46:08;6.02;79.60
79336;SHT35;69634;52.122;5.406;2024-02-26T02:48:38;6.01;79.94
79336;SHT35;69634;52.122;5.406;2024-02-26T02:51:11;6.06;79.46
79336;SHT35;69634;52.122;5.406;2024-02-26T02:53:42;6.09;79.54
79336;SHT35;69634;52.122;5.406;2024-02-26T02:56:12;6.05;79.07
79336;SHT35;69634;52.122;5.406;2024-02-26T02:58:42;6.06;78.93
79336;SHT35;69634;52.122;5.406;2024-02-26T03:01:13;6.04;78.68
79336;SHT35;69634;52.122;5.406;2024-02-26T03:03:43;6.06;78.80
79336;SHT35;69634;52.122;5.406;2024-02-26T03:06:16;6.02;78.83
79336;SHT35;69634;52.122;5.406;2024-02-26T03:08:48;6.08;79.27
79336;SHT35;69634;52.122;5.406;2024-02-26T03:11:18;6.10;79.24
79336;SHT35;69634;52.122;5.406;2024-02-26T03:13:48;6.09;80.04
79336;SHT35;69634;52.122;5.406;2024-02-26T03:16:18;6.12;79.29
79336;SHT35;69634;52.122;5.406;2024-02-26T03:18:49;6.10;79.17
79336;SHT35;69634;52.122;5.406;2024-02-26T03:21:22;6.11;79.39
79336;SHT35;69634;52.122;5.406;2024-02-26T03:23:52;6.12;79.26
79336;SHT35;69634;52.122;5.406;2024-02-26T03:26:22;6.09;79.19
79336;SHT35;69634;52.122;5.406;2024-02-26T03:28:52;6.11;79.17
79336;SHT35;69634;52.122;5.406;2024-02-26T03:31:22;6.03;79.22
79336;SHT35;69634;52.122;5.406;2024-02-26T03:33:52;6.08;79.31
79336;SHT35;69634;52.122;5.406;2024-02-26T03:36:25;6.05;79.06
79336;SHT35;69634;52.122;5.406;2024-02-26T03:38:55;6.04;79.05
79336;SHT35;69634;52.122;5.406;2024-02-26T03:41:26;6.00;79.16
79336;SHT35;69634;52.122;5.406;2024-02-26T03:43:57;5.99;79.59
79336;SHT35;69634;52.122;5.406;2024-02-26T03:46:27;5.97;79.74
79336;SHT35;69634;52.122;5.406;2024-02-26T03:48:57;5.89;79.56
79336;SHT35;69634;52.122;5.406;2024-02-26T03:51:30;5.87;79.69
79336;SHT35;69634;52.122;5.406;2024-02-26T03:54:01;5.87;79.69
79336;SHT35;69634;52.122;5.406;2024-02-26T03:56:31;5.89;79.63
79336;SHT35;69634;52.122;5.406;2024-02-26T03:59:01;5.83;79.48
79336;SHT35;69634;52.122;5.406;2024-02-26T04:01:32;5.79;79.78
79336;SHT35;69634;52.122;5.406;2024-02-26T04:04:02;5.80;79.87
79336;SHT35;69634;52.122;5.406;2024-02-26T04:06:35;5.80;79.91
79336;SHT35;69634;52.122;5.406;2024-02-26T04:09:05;5.83;79.92
79336;SHT35;69634;52.122;5.406;2024-02-26T04:11:37;5.78;79.96
79336;SHT35;69634;52.122;5.406;2024-02-26T04:14:07;5.81;79.92
79336;SHT35;69634;52.122;5.406;2024-02-26T04:16:39;5.78;79.85
79336;SHT35;69634;52.122;5.406;2024-02-26T04:19:09;5.77;79.87
79336;SHT35;69634;52.122;5.406;2024-02-26T04:21:43;5.79;79.87
79336;SHT35;69634;52.122;5.406;2024-02-26T04:24:14;5.80;79.83
79336;SHT35;69634;52.122;5.406;2024-02-26T04:26:44;5.80;79.43
79336;SHT35;69634;52.122;5.406;2024-02-26T04:29:14;5.80;79.67
79336;SHT35;69634;52.122;5.406;2024-02-26T04:31:44;5.79;79.61
79336;SHT35;69634;52.122;5.406;2024-02-26T04:34:15;5.83;79.87
79336;SHT35;69634;52.122;5.406;2024-02-26T04:36:48;5.87;79.40
79336;SHT35;69634;52.122;5.406;2024-02-26T04:39:18;5.83;79.55
79336;SHT35;69634;52.122;5.406;2024-02-26T04:41:51;5.87;79.46
79336;SHT35;69634;52.122;5.406;2024-02-26T04:44:21;5.93;79.47
79336;SHT35;69634;52.122;5.406;2024-02-26T04:46:51;5.94;79.69
79336;SHT35;69634;52.122;5.406;2024-02-26T04:49:21;5.95;79.25
79336;SHT35;69634;52.122;5.406;2024-02-26T04:51:54;5.94;79.21
79336;SHT35;69634;52.122;5.406;2024-02-26T04:54:24;5.98;79.42
79336;SHT35;69634;52.122;5.406;2024-02-26T04:56:54;5.98;78.81
79336;SHT35;69634;52.122;5.406;2024-02-26T04:59:25;5.96;79.10
79336;SHT35;69634;52.122;5.406;2024-02-26T05:01:55;6.00;79.18
79336;SHT35;69634;52.122;5.406;2024-02-26T05:04:25;5.98;79.18
79336;SHT35;69634;52.122;5.406;2024-02-26T05:06:58;5.98;79.05
79336;SHT35;69634;52.122;5.406;2024-02-26T05:09:28;6.00;79.46
79336;SHT35;69634;52.122;5.406;2024-02-26T05:11:59;6.01;79.37
79336;SHT35;69634;52.122;5.406;2024-02-26T05:14:29;6.01;78.95
79336;SHT35;69634;52.122;5.406;2024-02-26T05:16:59;5.92;78.76
79336;SHT35;69634;52.122;5.406;2024-02-26T05:19:29;5.98;79.15
79336;SHT35;69634;52.122;5.406;2024-02-26T05:22:02;5.95;79.14
79336;SHT35;69634;52.122;5.406;2024-02-26T05:24:32;5.94;79.58
79336;SHT35;69634;52.122;5.406;2024-02-26T05:27:03;5.92;79.58
79336;SHT35;69634;52.122;5.406;2024-02-26T05:29:34;5.96;80.07
79336;SHT35;69634;52.122;5.406;2024-02-26T05:32:05;5.94;80.14
79336;SHT35;69634;52.122;5.406;2024-02-26T05:34:36;5.92;79.78
79336;SHT35;69634;52.122;5.406;2024-02-26T05:37:09;5.93;79.81
79336;SHT35;69634;52.122;5.406;2024-02-26T05:39:39;5.88;79.77
79336;SHT35;69634;52.122;5.406;2024-02-26T05:42:10;5.86;79.81
79336;SHT35;69634;52.122;5.406;2024-02-26T05:44:40;5.88;80.37
79336;SHT35;69634;52.122;5.406;2024-02-26T05:47:10;5.89;80.42
79336;SHT35;69634;52.122;5.406;2024-02-26T05:49:40;5.86;80.36
79336;SHT35;69634;52.122;5.406;2024-02-26T05:52:13;5.88;80.41
79336;SHT35;69634;52.122;5.406;2024-02-26T05:54:43;5.85;80.21
79336;SHT35;69634;52.122;5.406;2024-02-26T05:57:14;5.85;80.71
79336;SHT35;69634;52.122;5.406;2024-02-26T05:59:45;5.83;80.37
79336;SHT35;69634;52.122;5.406;2024-02-26T06:02:16;5.86;80.18
79336;SHT35;69634;52.122;5.406;2024-02-26T06:04:46;5.82;80.39
79336;SHT35;69634;52.122;5.406;2024-02-26T06:07:18;5.81;80.42
79336;SHT35;69634;52.122;5.406;2024-02-26T06:09:49;5.85;80.28
79336;SHT35;69634;52.122;5.406;2024-02-26T06:12:19;5.79;79.95
79336;SHT35;69634;52.122;5.406;2024-02-26T06:14:50;5.82;80.52
79336;SHT35;69634;52.122;5.406;2024-02-26T06:17:20;5.80;80.24
79336;SHT35;69634;52.122;5.406;2024-02-26T06:19:50;5.79;80.23
79336;SHT35;69634;52.122;5.406;2024-02-26T06:22:23;5.83;80.37
79336;SHT35;69634;52.122;5.406;2024-02-26T06:24:53;5.83;80.08
79336;SHT35;69634;52.122;5.406;2024-02-26T06:27:24;5.83;80.34
79336;SHT35;69634;52.122;5.406;2024-02-26T06:29:54;5.83;80.00
79336;SHT35;69634;52.122;5.406;2024-02-26T06:32:24;5.83;80.33
79336;SHT35;69634;52.122;5.406;2024-02-26T06:34:55;5.81;80.03
79336;SHT35;69634;52.122;5.406;2024-02-26T06:37:28;5.86;80.19
79336;SHT35;69634;52.122;5.406;2024-02-26T06:39:58;5.89;80.20
79336;SHT35;69634;52.122;5.406;2024-02-26T06:42:28;5.89;80.17
79336;SHT35;69634;52.122;5.406;2024-02-26T06:44:58;5.91;80.11
79336;SHT35;69634;52.122;5.406;2024-02-26T06:47:28;5.93;80.33
79336;SHT35;69634;52.122;5.406;2024-02-26T06:49:59;5.89;80.33
79336;SHT35;69634;52.122;5.406;2024-02-26T06:52:32;5.89;80.44
79336;SHT35;69634;52.122;5.406;2024-02-26T06:55:02;5.93;80.25
79336;SHT35;69634;52.122;5.406;2024-02-26T06:57:35;5.91;80.38
79336;SHT35;69634;52.122;5.406;2024-02-26T07:00:06;5.91;80.52
79336;SHT35;69634;52.122;5.406;2024-02-26T07:02:41;5.92;80.66
79336;SHT35;69634;52.122;5.406;2024-02-26T07:05:12;5.90;80.53
79336;SHT35;69634;52.122;5.406;2024-02-26T07:07:45;5.90;80.99
79336;SHT35;69634;52.122;5.406;2024-02-26T07:10:15;5.92;80.52
79336;SHT35;69634;52.122;5.406;2024-02-26T07:12:46;5.90;81.01
79336;SHT35;69634;52.122;5.406;2024-02-26T07:15:16;5.95;81.04
79336;SHT35;69634;52.122;5.406;2024-02-26T07:17:46;5.93;80.93
79336;SHT35;69634;52.122;5.406;2024-02-26T07:20:17;5.91;80.88
79336;SHT35;69634;52.122;5.406;2024-02-26T07:22:50;5.95;81.02
79336;SHT35;69634;52.122;5.406;2024-02-26T07:25:20;5.93;80.80
79336;SHT35;69634;52.122;5.406;2024-02-26T07:27:51;5.97;80.77
79336;SHT35;69634;52.122;5.406;2024-02-26T07:30:21;5.98;80.88
79336;SHT35;69634;52.122;5.406;2024-02-26T07:32:52;5.98;80.84
79336;SHT35;69634;52.122;5.406;2024-02-26T07:35:22;5.98;80.89
79336;SHT35;69634;52.122;5.406;2024-02-26T07:37:55;6.02;80.99
79336;SHT35;69634;52.122;5.406;2024-02-26T07:40:25;5.96;80.91
79336;SHT35;69634;52.122;5.406;2024-02-26T07:42:56;6.04;81.11
79336;SHT35;69634;52.122;5.406;2024-02-26T07:45:26;6.09;81.30
79336;SHT35;69634;52.122;5.406;2024-02-26T07:47:56;6.04;80.87
79336;SHT35;69634;52.122;5.406;2024-02-26T07:50:27;6.04;80.94
79336;SHT35;69634;52.122;5.406;2024-02-26T07:53:00;6.14;81.23
79336;SHT35;69634;52.122;5.406;2024-02-26T07:55:30;6.07;80.96
79336;SHT35;69634;52.122;5.406;2024-02-26T07:58:00;6.18;81.22
79336;SHT35;69634;52.122;5.406;2024-02-26T08:00:33;6.15;81.26
79336;SHT35;69634;52.122;5.406;2024-02-26T08:03:04;6.15;81.12
79336;SHT35;69634;52.122;5.406;2024-02-26T08:05:35;6.12;81.23
79336;SHT35;69634;52.122;5.406;2024-02-26T08:08:10;6.22;81.08
79336;SHT35;69634;52.122;5.406;2024-02-26T08:10:40;6.22;81.16
79336;SHT35;69634;52.122;5.406;2024-02-26T08:13:10;6.21;81.24
79336;SHT35;69634;52.122;5.406;2024-02-26T08:15:40;6.27;81.47
79336;SHT35;69634;52.122;5.406;2024-02-26T08:18:11;6.28;81.19
79336;SHT35;69634;52.122;5.406;2024-02-26T08:20:41;6.28;81.00
79336;SHT35;69634;52.122;5.406;2024-02-26T08:23:14;6.29;80.96
79336;SHT35;69634;52.122;5.406;2024-02-26T08:25:44;6.39;81.12
79336;SHT35;69634;52.122;5.406;2024-02-26T08:28:15;6.38;80.83
79336;SHT35;69634;52.122;5.406;2024-02-26T08:30:45;6.39;81.17
79336;SHT35;69634;52.122;5.406;2024-02-26T08:33:15;6.39;80.54
79336;SHT35;69634;52.122;5.406;2024-02-26T08:35:46;6.39;80.87
79336;SHT35;69634;52.122;5.406;2024-02-26T08:38:19;6.38;80.38
79336;SHT35;69634;52.122;5.406;2024-02-26T08:40:49;6.39;80.14
79336;SHT35;69634;52.122;5.406;2024-02-26T08:43:19;6.46;80.56
79336;SHT35;69634;52.122;5.406;2024-02-26T08:45:49;6.47;80.71
79336;SHT35;69634;52.122;5.406;2024-02-26T08:48:19;6.40;80.38
79336;SHT35;69634;52.122;5.406;2024-02-26T08:50:50;6.50;80.52
79336;SHT35;69634;52.122;5.406;2024-02-26T08:53:23;6.46;80.07
79336;SHT35;69634;52.122;5.406;2024-02-26T08:56:07;6.55;80.25
79336;SHT35;69634;52.122;5.406;2024-02-26T08:58:38;6.54;80.29
79336;SHT35;69634;52.122;5.406;2024-02-26T09:01:08;6.56;80.55
79336;SHT35;69634;52.122;5.406;2024-02-26T09:03:39;6.51;80.29
79336;SHT35;69634;52.122;5.406;2024-02-26T09:06:10;6.43;80.45
79336;SHT35;69634;52.122;5.406;2024-02-26T09:08:43;6.41;80.60
79336;SHT35;69634;52.122;5.406;2024-02-26T09:11:14;6.37;80.53
79336;SHT35;69634;52.122;5.406;2024-02-26T09:13:44;6.35;80.83
79336;SHT35;69634;52.122;5.406;2024-02-26T09:16:15;6.32;81.02
79336;SHT35;69634;52.122;5.406;2024-02-26T09:18:45;6.37;81.17
79336;SHT35;69634;52.122;5.406;2024-02-26T09:21:15;6.36;81.27
79336;SHT35;69634;52.122;5.406;2024-02-26T09:23:53;6.43;80.98
79336;SHT35;69634;52.122;5.406;2024-02-26T09:26:24;6.31;81.18
79336;SHT35;69634;52.122;5.406;2024-02-26T09:28:54;6.30;81.16
79336;SHT35;69634;52.122;5.406;2024-02-26T09:31:24;6.29;81.42
79336;SHT35;69634;52.122;5.406;2024-02-26T09:33:54;6.29;81.71
79336;SHT35;69634;52.122;5.406;2024-02-26T09:36:29;6.19;81.57
79336;SHT35;69634;52.122;5.406;2024-02-26T09:39:02;6.28;82.10
79336;SHT35;69634;52.122;5.406;2024-02-26T09:41:34;6.30;81.95
79336;SHT35;69634;52.122;5.406;2024-02-26T09:44:05;6.30;82.00
79336;SHT35;69634;52.122;5.406;2024-02-26T09:46:37;6.32;82.10
79336;SHT35;69634;52.122;5.406;2024-02-26T09:49:11;6.35;82.18
79336;SHT35;69634;52.122;5.406;2024-02-26T09:51:42;6.34;81.82
79336;SHT35;69634;52.122;5.406;2024-02-26T09:54:16;6.23;81.76
79336;SHT35;69634;52.122;5.406;2024-02-26T09:56:49;6.29;82.07
79336;SHT35;69634;52.122;5.406;2024-02-26T09:59:38;6.36;82.51
79336;SHT35;69634;52.122;5.406;2024-02-26T10:02:12;6.23;81.94
79336;SHT35;69634;52.122;5.406;2024-02-26T10:04:43;6.30;82.29
79336;SHT35;69634;52.122;5.406;2024-02-26T10:07:18;6.34;82.55
79336;SHT35;69634;52.122;5.406;2024-02-26T10:09:52;6.33;82.56
79336;SHT35;69634;52.122;5.406;2024-02-26T10:12:23;6.31;82.64
79336;SHT35;69634;52.122;5.406;2024-02-26T10:14:55;6.31;82.55
79336;SHT35;69634;52.122;5.406;2024-02-26T10:17:26;6.31;82.60
79336;SHT35;69634;52.122;5.406;2024-02-26T10:20:11;6.30;82.75
79336;SHT35;69634;52.122;5.406;2024-02-26T10:22:42;6.39;83.08
79336;SHT35;69634;52.122;5.406;2024-02-26T10:25:15;6.36;83.17
79336;SHT35;69634;52.122;5.406;2024-02-26T10:27:49;6.34;83.20
79336;SHT35;69634;52.122;5.406;2024-02-26T10:30:22;6.36;82.91
79336;SHT35;69634;52.122;5.406;2024-02-26T10:32:54;6.38;83.20
79336;SHT35;69634;52.122;5.406;2024-02-26T10:35:24;6.35;83.33
79336;SHT35;69634;52.122;5.406;2024-02-26T10:37:56;6.31;83.18
79336;SHT35;69634;52.122;5.406;2024-02-26T10:40:28;6.33;84.25
79336;SHT35;69634;52.122;5.406;2024-02-26T10:42:59;6.33;84.26
79336;SHT35;69634;52.122;5.406;2024-02-26T10:45:29;6.20;84.15
79336;SHT35;69634;52.122;5.406;2024-02-26T10:48:04;6.29;84.40
79336;SHT35;69634;52.122;5.406;2024-02-26T10:50:35;6.22;84.16
79336;SHT35;69634;52.122;5.406;2024-02-26T10:53:13;6.24;84.52
79336;SHT35;69634;52.122;5.406;2024-02-26T10:55:54;6.25;84.20
79336;SHT35;69634;52.122;5.406;2024-02-26T10:58:25;6.31;84.74
79336;SHT35;69634;52.122;5.406;2024-02-26T11:00:57;6.34;84.99
79336;SHT35;69634;52.122;5.406;2024-02-26T11:03:30;6.37;84.10
79336;SHT35;69634;52.122;5.406;2024-02-26T11:06:03;6.33;83.94
79336;SHT35;69634;52.122;5.406;2024-02-26T11:08:35;6.35;84.51
79336;SHT35;69634;52.122;5.406;2024-02-26T11:11:09;6.42;84.79
79336;SHT35;69634;52.122;5.406;2024-02-26T11:13:46;6.43;85.08
79336;SHT35;69634;52.122;5.406;2024-02-26T11:16:18;6.45;84.21
79336;SHT35;69634;52.122;5.406;2024-02-26T11:18:49;6.41;84.96
79336;SHT35;69634;52.122;5.406;2024-02-26T11:21:23;6.47;85.14
79336;SHT35;69634;52.122;5.406;2024-02-26T11:23:57;6.47;84.67
79336;SHT35;69634;52.122;5.406;2024-02-26T11:26:31;6.49;84.77
79336;SHT35;69634;52.122;5.406;2024-02-26T11:29:02;6.43;83.88
79336;SHT35;69634;52.122;5.406;2024-02-26T11:31:33;6.46;84.50
79336;SHT35;69634;52.122;5.406;2024-02-26T11:34:04;6.40;84.90
79336;SHT35;69634;52.122;5.406;2024-02-26T11:36:36;6.37;84.81
79336;SHT35;69634;52.122;5.406;2024-02-26T11:39:08;6.43;86.12
79336;SHT35;69634;52.122;5.406;2024-02-26T11:41:42;6.46;85.75
79336;SHT35;69634;52.122;5.406;2024-02-26T11:44:13;6.35;85.00
79336;SHT35;69634;52.122;5.406;2024-02-26T11:46:46;6.34;84.79
79336;SHT35;69634;52.122;5.406;2024-02-26T11:49:31;6.30;84.99
79336;SHT35;69634;52.122;5.406;2024-02-26T11:52:06;6.40;85.75
79336;SHT35;69634;52.122;5.406;2024-02-26T11:54:44;6.41;85.79
79336;SHT35;69634;52.122;5.406;2024-02-26T11:57:24;6.39;85.28
79336;SHT35;69634;52.122;5.406;2024-02-26T12:00:09;6.44;85.39
79336;SHT35;69634;52.122;5.406;2024-02-26T12:02:44;6.43;85.00
79336;SHT35;69634;52.122;5.406;2024-02-26T12:05:17;6.51;85.33
79336;SHT35;69634;52.122;5.406;2024-02-26T12:07:49;6.54;85.19
79336;SHT35;69634;52.122;5.406;2024-02-26T12:10:24;6.58;85.69
79336;SHT35;69634;52.122;5.406;2024-02-26T12:13:05;6.56;84.69
79336;SHT35;69634;52.122;5.406;2024-02-26T12:15:42;6.60;84.50
79336;SHT35;69634;52.122;5.406;2024-02-26T12:18:17;6.57;84.73
79336;SHT35;69634;52.122;5.406;2024-02-26T12:20:58;6.50;84.02
79336;SHT35;69634;52.122;5.406;2024-02-26T12:23:30;6.61;84.44
79336;SHT35;69634;52.122;5.406;2024-02-26T12:26:01;6.62;84.35
79336;SHT35;69634;52.122;5.406;2024-02-26T12:28:37;6.61;84.14
79336;SHT35;69634;52.122;5.406;2024-02-26T12:31:07;6.60;84.61
79336;SHT35;69634;52.122;5.406;2024-02-26T12:33:38;6.66;85.13
79336;SHT35;69634;52.122;5.406;2024-02-26T12:36:09;6.64;84.56
79336;SHT35;69634;52.122;5.406;2024-02-26T12:38:40;6.67;84.55
79336;SHT35;69634;52.122;5.406;2024-02-26T12:41:10;6.69;84.24
79336;SHT35;69634;52.122;5.406;2024-02-26T12:43:43;6.68;84.98
79336;SHT35;69634;52.122;5.406;2024-02-26T12:46:16;6.73;83.52
79336;SHT35;69634;52.122;5.406;2024-02-26T12:48:47;6.69;83.36
79336;SHT35;69634;52.122;5.406;2024-02-26T12:51:17;6.61;83.97
79336;SHT35;69634;52.122;5.406;2024-02-26T12:53:49;6.62;83.84
79336;SHT35;69634;52.122;5.406;2024-02-26T12:56:22;6.69;84.46
79336;SHT35;69634;52.122;5.406;2024-02-26T12:58:55;6.76;84.59
79336;SHT35;69634;52.122;5.406;2024-02-26T13:01:26;6.77;83.81
79336;SHT35;69634;52.122;5.406;2024-02-26T13:03:57;6.68;82.92
79336;SHT35;69634;52.122;5.406;2024-02-26T13:06:33;6.76;83.29
79336;SHT35;69634;52.122;5.406;2024-02-26T13:09:04;6.74;83.39
79336;SHT35;69634;52.122;5.406;2024-02-26T13:11:39;6.72;82.75
79336;SHT35;69634;52.122;5.406;2024-02-26T13:14:21;6.74;83.23
79336;SHT35;69634;52.122;5.406;2024-02-26T13:16:55;6.75;82.38
79336;SHT35;69634;52.122;5.406;2024-02-26T13:19:25;6.77;82.40
79336;SHT35;69634;52.122;5.406;2024-02-26T13:22:03;6.75;82.50
79336;SHT35;69634;52.122;5.406;2024-02-26T13:24:34;6.78;83.56
79336;SHT35;69634;52.122;5.406;2024-02-26T13:27:04;6.82;83.08
79336;SHT35;69634;52.122;5.406;2024-02-26T13:29:37;6.84;82.61
79336;SHT35;69634;52.122;5.406;2024-02-26T13:32:10;6.87;82.42
79336;SHT35;69634;52.122;5.406;2024-02-26T13:34:40;6.86;82.24
79336;SHT35;69634;52.122;5.406;2024-02-26T13:37:11;6.82;82.22
79336;SHT35;69634;52.122;5.406;2024-02-26T13:39:41;6.82;82.31
79336;SHT35;69634;52.122;5.406;2024-02-26T13:42:11;6.79;82.10
79336;SHT35;69634;52.122;5.406;2024-02-26T13:44:44;6.72;81.56
79336;SHT35;69634;52.122;5.406;2024-02-26T13:47:14;6.69;82.03
79336;SHT35;69634;52.122;5.406;2024-02-26T13:49:45;6.69;81.90
79336;SHT35;69634;52.122;5.406;2024-02-26T13:52:15;6.71;82.51
79336;SHT35;69634;52.122;5.406;2024-02-26T13:54:47;6.74;82.54
79336;SHT35;69634;52.122;5.406;2024-02-26T13:57:17;6.69;82.08
79336;SHT35;69634;52.122;5.406;2024-02-26T13:59:51;6.66;81.94
79336;SHT35;69634;52.122;5.406;2024-02-26T14:02:21;6.69;82.46
79336;SHT35;69634;52.122;5.406;2024-02-26T14:04:51;6.74;82.39
79336;SHT35;69634;52.122;5.406;2024-02-26T14:07:22;6.74;81.26
79336;SHT35;69634;52.122;5.406;2024-02-26T14:09:52;6.81;81.30
79336;SHT35;69634;52.122;5.406;2024-02-26T14:12:33;6.87;81.09
79336;SHT35;69634;52.122;5.406;2024-02-26T14:15:07;6.86;81.13
79336;SHT35;69634;52.122;5.406;2024-02-26T14:17:37;6.98;81.53
79336;SHT35;69634;52.122;5.406;2024-02-26T14:20:09;6.97;81.40
79336;SHT35;69634;52.122;5.406;2024-02-26T14:22:39;6.97;80.39
79336;SHT35;69634;52.122;5.406;2024-02-26T14:25:10;7.01;80.73
79336;SHT35;69634;52.122;5.406;2024-02-26T14:27:40;7.04;81.19
79336;SHT35;69634;52.122;5.406;2024-02-26T14:30:13;7.12;81.57
79336;SHT35;69634;52.122;5.406;2024-02-26T14:32:44;7.10;80.64
79336;SHT35;69634;52.122;5.406;2024-02-26T14:35:14;7.08;80.25
79336;SHT35;69634;52.122;5.406;2024-02-26T14:37:45;7.09;80.25
79336;SHT35;69634;52.122;5.406;2024-02-26T14:40:17;7.09;80.18
79336;SHT35;69634;52.122;5.406;2024-02-26T14:42:47;7.18;80.73
79336;SHT35;69634;52.122;5.406;2024-02-26T14:45:20;7.15;80.25
79336;SHT35;69634;52.122;5.406;2024-02-26T14:47:50;7.10;79.36
79336;SHT35;69634;52.122;5.406;2024-02-26T14:50:21;7.11;79.55
79336;SHT35;69634;52.122;5.406;2024-02-26T14:52:51;7.09;80.06
79336;SHT35;69634;52.122;5.406;2024-02-26T14:55:21;7.07;79.84
79336;SHT35;69634;52.122;5.406;2024-02-26T14:57:51;7.00;78.72
79336;SHT35;69634;52.122;5.406;2024-02-26T15:00:24;7.04;80.21
79336;SHT35;69634;52.122;5.406;2024-02-26T15:02:56;7.08;79.85
79336;SHT35;69634;52.122;5.406;2024-02-26T15:05:26;7.10;79.56
79336;SHT35;69634;52.122;5.406;2024-02-26T15:07:57;7.13;79.45
79336;SHT35;69634;52.122;5.406;2024-02-26T15:10:27;7.13;79.42
79336;SHT35;69634;52.122;5.406;2024-02-26T15:12:58;7.13;79.83
79336;SHT35;69634;52.122;5.406;2024-02-26T15:15:30;7.16;79.86
79336;SHT35;69634;52.122;5.406;2024-02-26T15:18:01;7.16;79.32
79336;SHT35;69634;52.122;5.406;2024-02-26T15:20:31;7.20;79.75
79336;SHT35;69634;52.122;5.406;2024-02-26T15:23:01;7.12;78.25
79336;SHT35;69634;52.122;5.406;2024-02-26T15:25:32;7.09;78.74
79336;SHT35;69634;52.122;5.406;2024-02-26T15:28:02;7.06;78.61
79336;SHT35;69634;52.122;5.406;2024-02-26T15:30:36;7.03;78.32
79336;SHT35;69634;52.122;5.406;2024-02-26T15:33:06;7.05;78.92
79336;SHT35;69634;52.122;5.406;2024-02-26T15:35:37;7.03;78.61
79336;SHT35;69634;52.122;5.406;2024-02-26T15:38:07;7.02;78.43
79336;SHT35;69634;52.122;5.406;2024-02-26T15:40:37;6.98;78.22
79336;SHT35;69634;52.122;5.406;2024-02-26T15:43:07;7.06;79.54
79336;SHT35;69634;52.122;5.406;2024-02-26T15:45:44;7.09;79.36
79336;SHT35;69634;52.122;5.406;2024-02-26T15:48:14;7.10;79.38
79336;SHT35;69634;52.122;5.406;2024-02-26T15:50:44;7.11;80.13
79336;SHT35;69634;52.122;5.406;2024-02-26T15:53:15;7.13;79.60
79336;SHT35;69634;52.122;5.406;2024-02-26T15:55:45;7.04;79.36
79336;SHT35;69634;52.122;5.406;2024-02-26T15:58:15;7.11;79.63
79336;SHT35;69634;52.122;5.406;2024-02-26T16:00:48;7.08;79.14
79336;SHT35;69634;52.122;5.406;2024-02-26T16:03:18;7.17;79.33
79336;SHT35;69634;52.122;5.406;2024-02-26T16:05:48;7.12;78.92
79336;SHT35;69634;52.122;5.406;2024-02-26T16:08:21;7.04;79.26
79336;SHT35;69634;52.122;5.406;2024-02-26T16:10:52;6.93;78.45
79336;SHT35;69634;52.122;5.406;2024-02-26T16:13:22;6.98;80.00